createdAt,value
2022-10-12T00:00:55.634Z,2197
2022-10-12T00:04:56.061Z,2116
2022-10-12T00:05:55.911Z,2548
2022-10-12T00:06:55.900Z,2568
2022-10-12T00:07:55.914Z,2495
2022-10-12T00:09:58.074Z,2078
2022-10-12T00:10:55.912Z,2553
2022-10-12T00:11:55.938Z,2553
2022-10-12T00:12:55.928Z,2553
2022-10-12T00:14:56.086Z,2499
2022-10-12T00:15:55.917Z,2291
2022-10-12T00:16:55.935Z,2683
2022-10-12T00:17:55.912Z,2661
2022-10-12T00:19:56.100Z,2259
2022-10-12T00:20:55.903Z,2205
2022-10-12T00:21:55.945Z,2699
2022-10-12T00:22:55.909Z,2668
2022-10-12T00:24:56.113Z,2283
2022-10-12T00:25:55.931Z,2637
2022-10-12T00:26:55.913Z,2224
2022-10-12T00:27:55.937Z,2620
2022-10-12T00:29:56.062Z,2548
2022-10-12T00:30:55.935Z,2214
2022-10-12T00:31:55.904Z,2591
2022-10-12T00:32:55.938Z,2632
2022-10-12T00:34:56.073Z,2605
2022-10-12T00:35:55.938Z,2259
2022-10-12T00:36:55.922Z,2584
2022-10-12T00:37:55.941Z,2596
2022-10-12T00:39:56.105Z,2596
2022-10-12T00:40:55.940Z,2178
2022-10-12T00:41:55.938Z,2189
2022-10-12T00:42:55.912Z,2160
2022-10-12T00:44:56.112Z,2569
2022-10-12T00:45:55.910Z,2569
2022-10-12T00:46:55.916Z,2569
2022-10-12T00:47:55.917Z,2100
2022-10-12T00:49:56.109Z,2220
2022-10-12T00:50:55.928Z,2160
2022-10-12T00:51:55.940Z,2534
2022-10-12T00:52:55.916Z,2556
2022-10-12T00:54:56.144Z,2553
2022-10-12T00:55:55.920Z,2469
2022-10-12T00:56:55.924Z,2562
2022-10-12T00:57:55.934Z,2534
2022-10-12T00:59:56.117Z,2504
2022-10-12T01:00:55.969Z,2060
2022-10-12T01:01:55.914Z,2483
2022-10-12T01:02:55.937Z,2440
2022-10-12T01:04:56.073Z,2504
2022-10-12T01:05:55.930Z,2553
2022-10-12T01:06:55.920Z,2553
2022-10-12T01:07:55.942Z,2197
2022-10-12T01:09:56.156Z,2463
2022-10-12T01:10:55.922Z,2553
2022-10-12T01:11:55.957Z,1942
2022-10-12T01:12:55.969Z,2539
2022-10-12T01:14:56.153Z,2620
2022-10-12T01:15:55.974Z,2539
2022-10-12T01:16:55.919Z,2152
2022-10-12T01:17:55.926Z,2152
2022-10-12T01:19:57.270Z,2495
2022-10-12T01:20:55.959Z,2487
2022-10-12T01:21:55.931Z,2513
2022-10-12T01:22:55.927Z,2408
2022-10-12T01:24:56.092Z,2122
2022-10-12T01:25:55.961Z,2513
2022-10-12T01:26:55.930Z,2513
2022-10-12T01:27:55.927Z,1927
2022-10-12T01:29:56.087Z,2530
2022-10-12T01:30:55.949Z,2696
2022-10-12T01:31:55.924Z,2683
2022-10-12T01:32:55.935Z,2668
2022-10-12T01:34:56.162Z,2253
2022-10-12T01:35:55.932Z,1953
2022-10-12T01:36:55.935Z,2668
2022-10-12T01:37:55.932Z,2632
2022-10-12T01:39:56.130Z,2259
2022-10-12T01:40:55.934Z,2611
2022-10-12T01:41:55.941Z,1789
2022-10-12T01:42:55.955Z,2253
2022-10-12T01:44:56.137Z,2623
2022-10-12T01:45:55.930Z,2236
2022-10-12T01:46:55.952Z,2623
2022-10-12T01:47:55.952Z,2591
2022-10-12T01:49:56.137Z,2253
2022-10-12T01:50:55.934Z,2078
2022-10-12T01:51:55.940Z,2504
2022-10-12T01:52:55.962Z,2267
2022-10-12T01:54:56.170Z,2628
2022-10-12T01:55:55.972Z,2683
2022-10-12T01:56:55.964Z,2315
2022-10-12T01:57:55.951Z,2072
2022-10-12T01:59:56.136Z,2712
2022-10-12T02:00:55.963Z,2711
2022-10-12T02:01:55.993Z,2236
2022-10-12T02:02:55.945Z,2246
2022-10-12T02:04:56.139Z,2652
2022-10-12T02:05:55.945Z,2246
2022-10-12T02:06:55.940Z,2420
2022-10-12T02:07:55.933Z,2276
2022-10-12T02:09:56.150Z,2652
2022-10-12T02:10:55.955Z,2689
2022-10-12T02:11:55.966Z,2637
2022-10-12T02:12:55.978Z,2628
2022-10-12T02:14:56.108Z,2276
2022-10-12T02:15:55.953Z,2291
2022-10-12T02:16:55.978Z,2704
2022-10-12T02:17:55.957Z,2687
2022-10-12T02:19:56.137Z,2291
2022-10-12T02:20:55.953Z,2611
2022-10-12T02:21:55.974Z,2596
2022-10-12T02:22:55.951Z,2318
2022-10-12T02:24:56.143Z,2539
2022-10-12T02:25:55.950Z,2548
2022-10-12T02:26:55.946Z,2189
2022-10-12T02:27:55.947Z,2568
2022-10-12T02:29:56.144Z,2189
2022-10-12T02:30:55.952Z,2307
2022-10-12T02:31:55.962Z,2291
2022-10-12T02:32:55.951Z,2291
2022-10-12T02:34:56.142Z,2318
2022-10-12T02:35:55.964Z,2628
2022-10-12T02:36:55.960Z,2287
2022-10-12T02:37:55.951Z,2307
2022-10-12T02:39:56.105Z,2637
2022-10-12T02:40:55.959Z,2287
2022-10-12T02:41:55.957Z,2711
2022-10-12T02:43:09.663Z,2146
2022-10-12T02:44:56.184Z,2616
2022-10-12T02:45:55.961Z,2307
2022-10-12T02:46:55.959Z,2687
2022-10-12T02:47:56.014Z,2300
2022-10-12T02:49:56.157Z,2307
2022-10-12T02:50:55.961Z,2542
2022-10-12T02:51:55.952Z,2162
2022-10-12T02:52:55.969Z,2182
2022-10-12T02:54:56.132Z,2490
2022-10-12T02:55:55.987Z,2569
2022-10-12T02:56:55.972Z,2174
2022-10-12T02:57:55.986Z,2539
2022-10-12T02:59:56.162Z,2548
2022-10-12T03:00:55.999Z,2475
2022-10-12T03:01:55.969Z,2495
2022-10-12T03:02:55.986Z,2556
2022-10-12T03:04:56.116Z,2490
2022-10-12T03:05:55.991Z,2762
2022-10-12T03:06:55.960Z,2283
2022-10-12T03:07:55.965Z,2601
2022-10-12T03:09:56.150Z,2112
2022-10-12T03:10:55.968Z,2687
2022-10-12T03:11:55.971Z,2291
2022-10-12T03:12:55.965Z,2659
2022-10-12T03:14:56.122Z,2259
2022-10-12T03:15:55.971Z,2253
2022-10-12T03:16:55.969Z,2683
2022-10-12T03:17:55.975Z,2661
2022-10-12T03:19:56.132Z,2643
2022-10-12T03:20:55.987Z,2659
2022-10-12T03:21:55.977Z,2628
2022-10-12T03:22:55.990Z,2659
2022-10-12T03:24:56.128Z,2253
2022-10-12T03:25:56.026Z,2072
2022-10-12T03:26:55.972Z,2259
2022-10-12T03:27:55.972Z,2605
2022-10-12T03:29:56.170Z,2434
2022-10-12T03:30:55.985Z,2232
2022-10-12T03:31:55.977Z,2197
2022-10-12T03:32:55.998Z,2205
2022-10-12T03:34:56.132Z,2569
2022-10-12T03:35:55.991Z,2542
2022-10-12T03:36:55.977Z,2576
2022-10-12T03:37:55.985Z,2525
2022-10-12T03:39:56.161Z,1958
2022-10-12T03:40:55.989Z,2711
2022-10-12T03:41:55.975Z,2687
2022-10-12T03:42:55.974Z,2596
2022-10-12T03:44:56.175Z,2020
2022-10-12T03:45:55.977Z,2318
2022-10-12T03:46:56.008Z,2696
2022-10-12T03:47:55.984Z,2732
2022-10-12T03:49:56.171Z,2637
2022-10-12T03:50:55.991Z,2722
2022-10-12T03:51:56.011Z,2328
2022-10-12T03:52:56.011Z,2747
2022-10-12T03:54:56.166Z,2287
2022-10-12T03:55:55.986Z,2516
2022-10-12T03:56:55.993Z,1758
2022-10-12T03:57:56.005Z,2140
2022-10-12T03:59:56.181Z,2411
2022-10-12T04:00:55.979Z,2086
2022-10-12T04:01:56.076Z,2108
2022-10-12T04:02:56.009Z,2116
2022-10-12T04:04:56.145Z,2478
2022-10-12T04:05:55.985Z,2128
2022-10-12T04:06:56.014Z,2569
2022-10-12T04:07:55.984Z,2140
2022-10-12T04:09:56.182Z,2495
2022-10-12T04:10:56.019Z,2140
2022-10-12T04:11:56.010Z,2136
2022-10-12T04:12:55.984Z,2174
2022-10-12T04:14:56.139Z,2534
2022-10-12T04:15:55.993Z,2267
2022-10-12T04:16:56.001Z,2158
2022-10-12T04:17:55.993Z,2520
2022-10-12T04:19:56.213Z,2611
2022-10-12T04:20:56.010Z,2158
2022-10-12T04:21:56.020Z,2140
2022-10-12T04:22:56.023Z,2495
2022-10-12T04:24:56.215Z,2534
2022-10-12T04:25:55.986Z,2596
2022-10-12T04:26:56.015Z,2024
2022-10-12T04:27:56.000Z,2197
2022-10-12T04:29:56.193Z,2556
2022-10-12T04:30:55.986Z,2009
2022-10-12T04:31:55.993Z,2632
2022-10-12T04:32:55.987Z,2220
2022-10-12T04:34:56.198Z,2520
2022-10-12T04:35:56.009Z,2611
2022-10-12T04:36:56.014Z,2584
2022-10-12T04:37:55.993Z,2584
2022-10-12T04:39:56.191Z,2178
2022-10-12T04:40:56.004Z,2189
2022-10-12T04:41:56.027Z,1786
2022-10-12T04:42:56.002Z,2086
2022-10-12T04:44:56.191Z,2611
2022-10-12T04:45:56.021Z,2487
2022-10-12T04:46:55.996Z,2495
2022-10-12T04:47:56.030Z,2530
2022-10-12T04:49:56.251Z,2578
2022-10-12T04:50:56.028Z,2747
2022-10-12T04:51:55.993Z,2351
2022-10-12T04:52:56.002Z,2652
2022-10-12T04:54:56.197Z,2338
2022-10-12T04:55:55.993Z,2338
2022-10-12T04:56:56.001Z,2768
2022-10-12T04:57:55.994Z,2722
2022-10-12T04:59:56.229Z,2722
2022-10-12T05:00:56.054Z,2332
2022-10-12T05:01:56.085Z,2722
2022-10-12T05:02:56.001Z,2741
2022-10-12T05:04:56.156Z,2311
2022-10-12T05:05:56.010Z,2351
2022-10-12T05:06:56.025Z,2351
2022-10-12T05:07:56.032Z,2332
2022-10-12T05:09:56.235Z,2365
2022-10-12T05:10:56.033Z,2345
2022-10-12T05:11:56.041Z,2345
2022-10-12T05:12:56.006Z,2382
2022-10-12T05:14:56.204Z,2370
2022-10-12T05:15:56.006Z,2394
2022-10-12T05:16:56.016Z,2370
2022-10-12T05:17:56.015Z,2193
2022-10-12T05:19:56.209Z,2783
2022-10-12T05:20:57.125Z,2399
2022-10-12T05:21:56.029Z,2836
2022-10-12T05:22:56.001Z,2783
2022-10-12T05:24:56.162Z,2825
2022-10-12T05:25:56.017Z,2637
2022-10-12T05:26:56.002Z,2283
2022-10-12T05:27:56.013Z,2287
2022-10-12T05:29:56.176Z,2674
2022-10-12T05:30:56.012Z,2296
2022-10-12T05:31:56.012Z,2394
2022-10-12T05:32:56.026Z,2504
2022-10-12T05:34:56.249Z,2324
2022-10-12T05:35:56.587Z,2737
2022-10-12T05:36:56.035Z,2741
2022-10-12T05:37:56.028Z,2357
2022-10-12T05:39:56.219Z,2357
2022-10-12T05:41:00.235Z,2425
2022-10-12T05:41:56.063Z,2859
2022-10-12T05:42:56.016Z,2525
2022-10-12T05:44:56.239Z,2850
2022-10-12T05:45:56.018Z,2704
2022-10-12T05:46:56.045Z,2440
2022-10-12T05:47:56.017Z,2620
2022-10-12T05:49:56.247Z,2315
2022-10-12T05:50:56.046Z,2647
2022-10-12T05:51:56.016Z,2324
2022-10-12T05:52:56.021Z,2737
2022-10-12T05:54:56.241Z,2378
2022-10-12T05:55:56.029Z,2328
2022-10-12T05:56:56.040Z,2799
2022-10-12T05:57:56.049Z,2757
2022-10-12T05:59:56.213Z,2676
2022-10-12T06:00:56.023Z,2232
2022-10-12T06:01:56.060Z,2259
2022-10-12T06:02:56.024Z,2263
2022-10-12T06:04:56.214Z,2676
2022-10-12T06:05:56.020Z,2253
2022-10-12T06:06:56.051Z,2504
2022-10-12T06:07:56.043Z,2259
2022-10-12T06:09:56.225Z,2704
2022-10-12T06:10:56.031Z,2632
2022-10-12T06:11:56.025Z,2611
2022-10-12T06:12:56.030Z,2611
2022-10-12T06:14:56.229Z,2394
2022-10-12T06:15:56.032Z,2568
2022-10-12T06:16:56.038Z,2530
2022-10-12T06:17:56.031Z,2287
2022-10-12T06:19:56.218Z,2189
2022-10-12T06:21:09.056Z,1927
2022-10-12T06:21:56.051Z,2530
2022-10-12T06:22:56.060Z,2542
2022-10-12T06:24:56.261Z,1848
2022-10-12T06:25:56.054Z,2166
2022-10-12T06:26:56.054Z,1850
2022-10-12T06:27:56.062Z,1844
2022-10-12T06:29:56.226Z,1844
2022-10-12T06:30:56.078Z,1891
2022-10-12T06:31:56.077Z,1816
2022-10-12T06:32:56.042Z,1807
2022-10-12T06:34:56.263Z,1975
2022-10-12T06:35:56.035Z,1730
2022-10-12T06:36:59.532Z,2003
2022-10-12T06:37:56.047Z,1719
2022-10-12T06:39:56.184Z,1736
2022-10-12T06:40:56.046Z,1639
2022-10-12T06:41:56.044Z,1639
2022-10-12T06:42:58.513Z,1609
2022-10-12T06:44:56.229Z,1723
2022-10-12T06:45:56.043Z,1859
2022-10-12T06:46:56.039Z,1942
2022-10-12T06:47:56.038Z,1915
2022-10-12T06:49:56.201Z,1942
2022-10-12T06:50:56.066Z,1679
2022-10-12T06:51:56.071Z,1688
2022-10-12T06:52:56.071Z,1697
2022-10-12T06:54:56.262Z,1716
2022-10-12T06:55:56.071Z,2005
2022-10-12T06:56:58.678Z,1679
2022-10-12T06:57:56.073Z,1609
2022-10-12T06:59:56.199Z,1669
2022-10-12T07:00:56.037Z,1669
2022-10-12T07:01:56.079Z,1679
2022-10-12T07:02:56.046Z,1669
2022-10-12T07:05:56.510Z,400
2022-10-12T07:06:56.518Z,572
2022-10-12T07:07:56.508Z,438
2022-10-12T07:09:56.722Z,546
2022-10-12T07:10:59.107Z,588
2022-10-12T07:11:56.532Z,589
2022-10-12T07:12:56.544Z,580
2022-10-12T07:14:56.710Z,400
2022-10-12T07:15:56.510Z,565
2022-10-12T07:16:56.537Z,425
2022-10-12T07:17:56.556Z,549
2022-10-12T07:19:56.699Z,450
2022-10-12T07:20:56.513Z,545
2022-10-12T07:21:56.526Z,454
2022-10-12T07:22:56.549Z,460
2022-10-12T07:24:56.726Z,454
2022-10-12T07:25:56.541Z,400
2022-10-12T07:26:56.533Z,581
2022-10-12T07:27:56.541Z,411
2022-10-12T07:29:56.745Z,575
2022-10-12T07:30:56.543Z,400
2022-10-12T07:31:56.549Z,459
2022-10-12T07:32:56.532Z,497
2022-10-12T07:34:56.735Z,498
2022-10-12T07:36:13.103Z,444
2022-10-12T07:36:59.363Z,594
2022-10-12T07:37:56.516Z,450
2022-10-12T07:39:56.709Z,438
2022-10-12T07:40:56.550Z,574
2022-10-12T07:41:56.515Z,575
2022-10-12T07:43:15.125Z,567
2022-10-12T07:44:56.726Z,581
2022-10-12T07:45:56.529Z,552
2022-10-12T07:46:56.522Z,536
2022-10-12T07:47:56.527Z,465
2022-10-12T07:49:56.725Z,439
2022-10-12T07:50:56.539Z,457
2022-10-12T07:51:56.524Z,588
2022-10-12T07:52:56.546Z,580
2022-10-12T07:54:56.715Z,561
2022-10-12T07:55:56.542Z,454
2022-10-12T07:56:56.602Z,438
2022-10-12T07:57:56.551Z,439
2022-10-12T07:59:56.754Z,567
2022-10-12T08:00:56.553Z,530
2022-10-12T08:01:56.648Z,530
2022-10-12T08:02:56.541Z,537
2022-10-12T08:04:56.743Z,435
2022-10-12T08:05:56.518Z,602
2022-10-12T08:06:56.548Z,605
2022-10-12T08:07:56.577Z,423
2022-10-12T08:09:56.724Z,569
2022-10-12T08:10:56.566Z,537
2022-10-12T08:11:56.554Z,410
2022-10-12T08:12:56.529Z,674
2022-10-12T08:14:56.753Z,650
2022-10-12T08:15:56.560Z,578
2022-10-12T08:16:56.577Z,492
2022-10-12T08:17:56.574Z,641
2022-10-12T08:19:56.731Z,649
2022-10-12T08:20:56.587Z,456
2022-10-12T08:21:56.535Z,456
2022-10-12T08:22:56.557Z,591
2022-10-12T08:24:56.744Z,592
2022-10-12T08:25:56.530Z,600
2022-10-12T08:27:00.474Z,445
2022-10-12T08:27:56.551Z,436
2022-10-12T08:29:56.757Z,564
2022-10-12T08:30:56.557Z,409
2022-10-12T08:31:56.562Z,574
2022-10-12T08:32:56.564Z,561
2022-10-12T08:34:56.731Z,542
2022-10-12T08:35:56.569Z,545
2022-10-12T08:36:56.575Z,508
2022-10-12T08:37:56.563Z,481
2022-10-12T08:39:59.640Z,403
2022-10-12T08:40:56.575Z,401
2022-10-12T08:41:56.557Z,624
2022-10-12T08:42:56.540Z,472
2022-10-12T08:44:56.762Z,418
2022-10-12T08:45:56.544Z,570
2022-10-12T08:46:56.569Z,567
2022-10-12T08:47:56.624Z,485
2022-10-12T08:49:56.740Z,567
2022-10-12T08:51:56.581Z,640
2022-10-12T08:52:56.559Z,620
2022-10-12T08:54:56.766Z,626
2022-10-12T08:55:56.600Z,444
2022-10-12T08:56:56.579Z,446
2022-10-12T08:57:56.580Z,560
2022-10-12T08:59:56.773Z,634
2022-10-12T09:00:56.553Z,450
2022-10-12T09:01:56.584Z,592
2022-10-12T09:02:56.578Z,540
2022-10-12T09:04:56.771Z,592
2022-10-12T09:05:56.570Z,444
2022-10-12T09:06:56.574Z,600
2022-10-12T09:07:56.566Z,600
2022-10-12T09:09:56.747Z,414
2022-10-12T09:10:56.557Z,441
2022-10-12T09:11:56.549Z,588
2022-10-12T09:12:56.560Z,580
2022-10-12T09:14:56.756Z,575
2022-10-12T09:15:56.615Z,515
2022-10-12T09:16:56.580Z,543
2022-10-12T09:17:56.588Z,414
2022-10-12T09:19:56.779Z,531
2022-10-12T09:20:56.561Z,591
2022-10-12T09:21:56.586Z,476
2022-10-12T09:22:56.589Z,483
2022-10-12T09:24:56.753Z,633
2022-10-12T09:25:56.578Z,435
2022-10-12T09:26:56.586Z,501
2022-10-12T09:27:56.578Z,614
2022-10-12T09:29:56.767Z,607
2022-10-12T09:30:56.561Z,627
2022-10-12T09:31:56.570Z,473
2022-10-12T09:32:56.562Z,623
2022-10-12T09:34:56.786Z,466
2022-10-12T09:35:56.618Z,475
2022-10-12T09:36:56.579Z,428
2022-10-12T09:37:56.588Z,611
2022-10-12T09:39:56.786Z,612
2022-10-12T09:40:56.567Z,649
2022-10-12T09:41:56.613Z,657
2022-10-12T09:42:56.569Z,501
2022-10-12T09:44:56.767Z,649
2022-10-12T09:45:56.596Z,567
2022-10-12T09:46:56.636Z,575
2022-10-12T09:47:56.597Z,553
2022-10-12T09:49:56.800Z,580
2022-10-12T09:50:56.567Z,434
2022-10-12T09:51:56.592Z,432
2022-10-12T09:52:56.573Z,410
2022-10-12T09:54:56.781Z,555
2022-10-12T09:55:56.622Z,730
2022-10-12T09:56:56.600Z,728
2022-10-12T09:57:56.607Z,712
2022-10-12T09:59:56.821Z,688
2022-10-12T10:00:56.597Z,491
2022-10-12T10:01:56.676Z,493
2022-10-12T10:02:56.594Z,481
2022-10-12T10:04:56.811Z,483
2022-10-12T10:05:56.627Z,527
2022-10-12T10:06:56.574Z,527
2022-10-12T10:07:56.604Z,526
2022-10-12T10:09:56.816Z,502
2022-10-12T10:10:56.628Z,624
2022-10-12T10:11:56.622Z,627
2022-10-12T10:12:56.606Z,620
2022-10-12T10:14:56.815Z,592
2022-10-12T10:15:56.614Z,556
2022-10-12T10:16:56.584Z,551
2022-10-12T10:17:56.611Z,574
2022-10-12T10:19:56.811Z,570
2022-10-12T10:20:56.587Z,480
2022-10-12T10:21:56.610Z,451
2022-10-12T10:22:56.588Z,446
2022-10-12T10:25:00.095Z,566
2022-10-12T10:25:56.621Z,552
2022-10-12T10:26:56.638Z,470
2022-10-12T10:27:56.614Z,400
2022-10-12T10:30:04.638Z,574
2022-10-12T10:30:56.617Z,666
2022-10-12T10:31:56.627Z,633
2022-10-12T10:32:56.641Z,487
2022-10-12T10:34:56.786Z,439
2022-10-12T10:35:56.637Z,410
2022-10-12T10:36:56.642Z,580
2022-10-12T10:37:56.643Z,560
2022-10-12T10:39:56.804Z,422
2022-10-12T10:40:56.597Z,426
2022-10-12T10:41:56.623Z,422
2022-10-12T10:42:56.605Z,408
2022-10-12T10:44:56.789Z,433
2022-10-12T10:45:56.601Z,626
2022-10-12T10:46:56.626Z,629
2022-10-12T10:47:56.598Z,631
2022-10-12T10:49:56.836Z,629
2022-10-12T10:50:56.655Z,555
2022-10-12T10:51:56.646Z,409
2022-10-12T10:52:56.633Z,574
2022-10-12T10:54:56.823Z,542
2022-10-12T10:55:56.632Z,570
2022-10-12T10:56:56.639Z,561
2022-10-12T10:57:56.634Z,446
2022-10-12T10:59:58.043Z,565
2022-10-12T11:00:56.638Z,530
2022-10-12T11:01:56.841Z,552
2022-10-12T11:02:56.639Z,426
2022-10-12T11:04:56.810Z,560
2022-10-12T11:05:56.634Z,497
2022-10-12T11:06:56.642Z,519
2022-10-12T11:07:56.636Z,424
2022-10-12T11:09:56.816Z,424
2022-10-12T11:10:56.642Z,451
2022-10-12T11:11:56.623Z,451
2022-10-12T11:12:56.652Z,451
2022-10-12T11:14:56.836Z,451
2022-10-12T11:15:56.655Z,529
2022-10-12T11:16:56.633Z,549
2022-10-12T11:17:56.610Z,454
2022-10-12T11:19:56.807Z,454
2022-10-12T11:20:56.623Z,417
2022-10-12T11:21:56.616Z,497
2022-10-12T11:22:56.640Z,497
2022-10-12T11:24:56.810Z,485
2022-10-12T11:25:56.645Z,552
2022-10-12T11:26:56.622Z,540
2022-10-12T11:27:56.639Z,527
2022-10-12T11:30:08.241Z,534
2022-10-12T11:30:56.674Z,549
2022-10-12T11:31:56.655Z,545
2022-10-12T11:32:56.629Z,551
2022-10-12T11:34:56.816Z,555
2022-10-12T11:35:56.665Z,556
2022-10-12T11:37:17.982Z,569
2022-10-12T11:37:56.622Z,545
2022-10-12T11:39:56.816Z,456
2022-10-12T11:41:09.633Z,400
2022-10-12T11:42:20.182Z,400
2022-10-12T11:42:56.645Z,400
2022-10-12T11:44:56.832Z,549
2022-10-12T11:45:56.641Z,553
2022-10-12T11:46:56.650Z,578
2022-10-12T11:47:56.629Z,556
2022-10-12T11:49:56.821Z,629
2022-10-12T11:51:00.046Z,594
2022-10-12T11:51:56.657Z,570
2022-10-12T11:52:56.642Z,603
2022-10-12T11:54:56.846Z,498
2022-10-12T11:55:56.656Z,530
2022-10-12T11:56:56.659Z,531
2022-10-12T11:57:56.633Z,561
2022-10-12T11:59:56.841Z,768
2022-10-12T12:00:56.686Z,694
2022-10-12T12:01:56.664Z,897
2022-10-12T12:02:56.688Z,732
2022-10-12T12:04:56.982Z,1017
2022-10-12T12:05:56.671Z,905
2022-10-12T12:06:56.668Z,949
2022-10-12T12:07:56.671Z,977
2022-10-12T12:09:56.867Z,732
2022-10-12T12:10:56.670Z,836
2022-10-12T12:11:56.675Z,853
2022-10-12T12:12:56.676Z,897
2022-10-12T12:14:56.878Z,905
2022-10-12T12:15:56.674Z,832
2022-10-12T12:16:56.698Z,1004
2022-10-12T12:17:56.685Z,692
2022-10-12T12:19:56.855Z,1019
2022-10-12T12:20:56.676Z,945
2022-10-12T12:21:56.691Z,992
2022-10-12T12:22:56.649Z,735
2022-10-12T12:24:56.868Z,1081
2022-10-12T12:25:56.664Z,874
2022-10-12T12:26:56.685Z,895
2022-10-12T12:27:56.669Z,1212
2022-10-12T12:29:56.842Z,1198
2022-10-12T12:30:56.675Z,1429
2022-10-12T12:31:56.680Z,1047
2022-10-12T12:32:56.701Z,1062
2022-10-12T12:35:00.159Z,1413
2022-10-12T12:35:56.680Z,1334
2022-10-12T12:36:56.682Z,1277
2022-10-12T12:37:56.681Z,961
2022-10-12T12:39:56.873Z,1465
2022-10-12T12:40:56.657Z,895
2022-10-12T12:42:00.695Z,1400
2022-10-12T12:42:56.676Z,1019
2022-10-12T12:44:52.806Z,545
2022-10-12T12:45:52.812Z,421
2022-10-12T12:46:52.698Z,552
2022-10-12T12:48:52.973Z,574
2022-10-12T12:49:52.723Z,421
2022-10-12T12:50:52.699Z,588
2022-10-12T12:51:52.703Z,588
2022-10-12T12:53:52.987Z,620
2022-10-12T12:54:53.383Z,759
2022-10-12T12:55:52.689Z,552
2022-10-12T12:56:52.687Z,746
2022-10-12T12:58:52.976Z,808
2022-10-12T12:59:52.686Z,748
2022-10-12T13:00:52.706Z,780
2022-10-12T13:01:52.727Z,566
2022-10-12T13:03:52.984Z,748
2022-10-12T13:04:52.728Z,930
2022-10-12T13:05:52.720Z,851
2022-10-12T13:06:52.727Z,945
2022-10-12T13:08:52.998Z,880
2022-10-12T13:09:52.690Z,602
2022-10-12T13:10:52.693Z,855
2022-10-12T13:11:52.710Z,844
2022-10-12T13:13:53.024Z,800
2022-10-12T13:14:52.707Z,577
2022-10-12T13:15:52.693Z,770
2022-10-12T13:18:52.995Z,726
2022-10-12T13:19:52.817Z,678
2022-10-12T13:20:52.821Z,780
2022-10-12T13:21:52.838Z,567
2022-10-12T13:23:53.002Z,783
2022-10-12T13:24:52.726Z,706
2022-10-12T13:25:56.916Z,567
2022-10-12T13:26:52.749Z,569
2022-10-12T13:28:53.039Z,776
2022-10-12T13:29:52.706Z,540
2022-10-12T13:30:52.723Z,715
2022-10-12T13:31:52.733Z,615
2022-10-12T13:33:53.032Z,692
2022-10-12T13:34:52.703Z,645
2022-10-12T13:35:52.743Z,840
2022-10-12T13:36:52.732Z,834
2022-10-12T13:38:53.023Z,588
2022-10-12T13:39:52.722Z,887
2022-10-12T13:40:52.718Z,633
2022-10-12T13:41:52.732Z,821
2022-10-12T13:43:53.010Z,540
2022-10-12T13:44:52.728Z,640
2022-10-12T13:45:52.719Z,836
2022-10-12T13:46:52.740Z,730
2022-10-12T13:48:59.543Z,683
2022-10-12T13:49:52.731Z,569
2022-10-12T13:50:52.739Z,567
2022-10-12T13:51:52.714Z,567
2022-10-12T13:53:53.040Z,567
2022-10-12T13:54:52.728Z,620
2022-10-12T13:55:52.738Z,620
2022-10-12T13:56:52.746Z,620
2022-10-12T13:58:53.050Z,620
2022-10-12T13:59:52.727Z,487
2022-10-12T14:00:52.780Z,487
2022-10-12T14:01:52.745Z,487
2022-10-12T14:03:53.023Z,487
2022-10-12T14:04:52.746Z,444
2022-10-12T14:05:55.960Z,444
2022-10-12T14:06:52.726Z,444
2022-10-12T14:08:53.043Z,444
2022-10-12T14:09:52.750Z,548
2022-10-12T14:10:52.848Z,548
2022-10-12T14:11:52.870Z,548
2022-10-12T14:13:53.037Z,548
2022-10-12T14:14:52.876Z,505
2022-10-12T14:15:52.754Z,505
2022-10-12T14:16:52.733Z,505
2022-10-12T14:18:53.052Z,505
2022-10-12T14:19:52.740Z,564
2022-10-12T14:20:52.758Z,564
2022-10-12T14:21:52.784Z,564
2022-10-12T14:23:53.026Z,564
2022-10-12T14:24:52.869Z,411
2022-10-12T14:25:52.847Z,411
2022-10-12T14:26:52.860Z,411
2022-10-12T14:28:53.060Z,411
2022-10-12T14:29:52.768Z,463
2022-10-12T14:30:52.766Z,463
2022-10-12T14:31:52.762Z,463
2022-10-12T14:33:53.260Z,463
2022-10-12T14:34:52.777Z,415
2022-10-12T14:35:52.755Z,415
2022-10-12T14:36:52.734Z,415
2022-10-12T14:38:53.069Z,415
2022-10-12T14:39:52.768Z,433
2022-10-12T14:40:52.770Z,433
2022-10-12T14:41:52.770Z,433
2022-10-12T14:43:53.038Z,433
2022-10-12T14:44:52.764Z,486
2022-10-12T14:45:52.765Z,486
2022-10-12T14:46:52.740Z,486
2022-10-12T14:48:53.072Z,486
2022-10-12T14:49:52.777Z,561
2022-10-12T14:50:52.769Z,561
2022-10-12T14:51:52.773Z,561
2022-10-12T14:53:53.044Z,561
2022-10-12T14:54:52.884Z,640
2022-10-12T14:55:53.871Z,640
2022-10-12T14:56:52.777Z,640
2022-10-12T14:58:53.044Z,640
2022-10-12T14:59:52.784Z,671
2022-10-12T15:00:52.849Z,671
2022-10-12T15:01:52.748Z,671
2022-10-12T15:03:53.054Z,671
2022-10-12T15:04:52.775Z,678
2022-10-12T15:05:52.773Z,678
2022-10-12T15:06:52.753Z,678
2022-10-12T15:08:53.055Z,678
2022-10-12T15:09:52.779Z,694
2022-10-12T15:10:52.775Z,694
2022-10-12T15:11:52.763Z,694
2022-10-12T15:13:53.062Z,694
2022-10-12T15:14:52.757Z,699
2022-10-12T15:15:52.782Z,699
2022-10-12T15:16:52.882Z,699
2022-10-12T15:18:53.091Z,699
2022-10-12T15:19:52.765Z,791
2022-10-12T15:20:52.786Z,791
2022-10-12T15:21:52.773Z,791
2022-10-12T15:23:53.059Z,791
2022-10-12T15:24:52.796Z,830
2022-10-12T15:25:52.762Z,830
2022-10-12T15:26:52.783Z,830
2022-10-12T15:28:53.087Z,830
2022-10-12T15:29:52.765Z,815
2022-10-12T15:31:15.701Z,815
2022-10-12T15:31:52.919Z,815
2022-10-12T15:33:53.066Z,815
2022-10-12T15:34:52.795Z,887
2022-10-12T15:35:52.797Z,887
2022-10-12T15:36:52.798Z,887
2022-10-12T15:38:53.067Z,887
2022-10-12T15:39:52.905Z,951
2022-10-12T15:40:52.917Z,951
2022-10-12T15:41:52.924Z,951
2022-10-12T15:43:53.066Z,951
2022-10-12T15:44:52.793Z,1017
2022-10-12T15:45:52.885Z,1017
2022-10-12T15:46:52.793Z,1017
2022-10-12T15:48:53.092Z,1017
2022-10-12T15:49:52.875Z,1074
2022-10-12T15:50:52.781Z,1074
2022-10-12T15:51:52.816Z,1074
2022-10-12T15:53:53.068Z,1074
2022-10-12T15:54:52.816Z,1153
2022-10-12T15:55:52.802Z,1153
2022-10-12T15:56:52.789Z,1153
2022-10-12T15:58:53.104Z,1153
2022-10-12T15:59:52.794Z,1153
2022-10-12T16:00:52.894Z,1153
2022-10-12T16:01:52.795Z,1153
2022-10-12T16:03:53.105Z,1153
2022-10-12T16:04:52.789Z,1242
2022-10-12T16:05:52.818Z,1242
2022-10-12T16:06:52.787Z,1242
2022-10-12T16:08:53.120Z,1242
2022-10-12T16:09:52.777Z,1242
2022-10-12T16:10:52.807Z,1242
2022-10-12T16:11:52.802Z,1242
2022-10-12T16:13:56.630Z,1242
2022-10-12T16:14:52.785Z,1352
2022-10-12T16:15:52.811Z,1352
2022-10-12T16:16:52.790Z,1352
2022-10-12T16:18:53.114Z,1352
2022-10-12T16:19:52.807Z,1352
2022-10-12T16:20:54.094Z,1352
2022-10-12T16:21:52.804Z,1352
2022-10-12T16:23:53.106Z,1352
2022-10-12T16:24:52.926Z,1330
2022-10-12T16:25:52.802Z,1330
2022-10-12T16:26:52.842Z,1330
2022-10-12T16:28:53.192Z,1330
2022-10-12T16:29:52.906Z,1436
2022-10-12T16:30:52.816Z,1436
2022-10-12T16:31:52.808Z,1436
2022-10-12T16:33:53.087Z,1436
2022-10-12T16:34:52.818Z,1436
2022-10-12T16:35:52.915Z,1436
2022-10-12T16:36:52.921Z,1436
2022-10-12T16:38:53.091Z,1436
2022-10-12T16:39:52.828Z,1462
2022-10-12T16:40:52.928Z,1462
2022-10-12T16:41:52.796Z,1462
2022-10-12T16:43:53.103Z,1462
2022-10-12T16:44:52.863Z,1462
2022-10-12T16:45:52.946Z,1462
2022-10-12T16:46:52.799Z,1462
2022-10-12T16:48:53.096Z,1462
2022-10-12T16:49:52.921Z,1552
2022-10-12T16:50:52.805Z,1552
2022-10-12T16:51:52.922Z,1552
2022-10-12T16:53:53.109Z,1552
2022-10-12T16:54:52.832Z,1597
2022-10-12T16:55:52.806Z,1597
2022-10-12T16:56:52.954Z,1597
2022-10-12T16:58:53.117Z,1597
2022-10-12T16:59:52.811Z,1574
2022-10-12T17:00:52.984Z,1574